sensor_id;sensor_type;location;lat;lon;timestamp;pressure;altitude;pressure_sealevel;temperature;humidity
22018;BME280;11173;51.050;7.108;2023-07-31T00:02:36;99162.44;;;15.42;65.41
22018;BME280;11173;51.050;7.108;2023-07-31T00:12:42;99158.41;;;15.43;65.17
22018;BME280;11173;51.050;7.108;2023-07-31T00:22:43;99153.22;;;15.51;65.37
22018;BME280;11173;51.050;7.108;2023-07-31T00:32:43;99160.75;;;15.63;66.45
22018;BME280;11173;51.050;7.108;2023-07-31T00:42:43;99154.81;;;15.61;66.31
22018;BME280;11173;51.050;7.108;2023-07-31T00:52:44;99146.09;;;15.59;65.72
22018;BME280;11173;51.050;7.108;2023-07-31T01:02:44;99134.38;;;15.61;66.25
22018;BME280;11173;51.050;7.108;2023-07-31T01:12:45;99121.75;;;15.65;66.19
22018;BME280;11173;51.050;7.108;2023-07-31T01:33:20;99125.19;;;15.69;66.45
22018;BME280;11173;51.050;7.108;2023-07-31T01:43:21;99126.41;;;15.68;66.34
22018;BME280;11173;51.050;7.108;2023-07-31T01:53:21;99121.56;;;15.78;66.52
22018;BME280;11173;51.050;7.108;2023-07-31T02:03:22;99111.13;;;15.79;66.04
22018;BME280;11173;51.050;7.108;2023-07-31T02:13:22;99108.97;;;15.83;66.16
22018;BME280;11173;51.050;7.108;2023-07-31T02:23:22;99094.16;;;15.82;65.95
22018;BME280;11173;51.050;7.108;2023-07-31T02:33:23;99083.38;;;15.81;65.72
22018;BME280;11173;51.050;7.108;2023-07-31T02:43:23;99080.56;;;15.81;66.03
22018;BME280;11173;51.050;7.108;2023-07-31T02:53:24;99073.06;;;15.87;66.11
22018;BME280;11173;51.050;7.108;2023-07-31T03:03:24;99064.63;;;15.87;66.20
22018;BME280;11173;51.050;7.108;2023-07-31T03:13:24;99066.97;;;15.88;66.25
22018;BME280;11173;51.050;7.108;2023-07-31T03:23:28;99044.03;;;15.90;66.09
22018;BME280;11173;51.050;7.108;2023-07-31T03:33:28;99049.34;;;15.97;65.89
22018;BME280;11173;51.050;7.108;2023-07-31T03:43:28;99037.44;;;16.02;66.05
22018;BME280;11173;51.050;7.108;2023-07-31T03:53:29;99034.00;;;16.07;66.14
22018;BME280;11173;51.050;7.108;2023-07-31T04:03:30;99042.44;;;16.07;66.08
22018;BME280;11173;51.050;7.108;2023-07-31T04:13:30;99024.91;;;16.13;66.14
22018;BME280;11173;51.050;7.108;2023-07-31T04:23:30;99029.13;;;16.17;66.21
22018;BME280;11173;51.050;7.108;2023-07-31T04:33:31;99019.47;;;16.09;66.29
22018;BME280;11173;51.050;7.108;2023-07-31T04:43:31;99022.13;;;16.13;66.47
22018;BME280;11173;51.050;7.108;2023-07-31T04:53:31;99013.69;;;16.13;66.11
22018;BME280;11173;51.050;7.108;2023-07-31T05:03:32;99016.78;;;16.15;66.65
22018;BME280;11173;51.050;7.108;2023-07-31T05:13:32;98997.72;;;16.19;66.83
22018;BME280;11173;51.050;7.108;2023-07-31T05:23:32;98981.13;;;16.30;67.33
22018;BME280;11173;51.050;7.108;2023-07-31T05:33:33;98975.06;;;16.56;67.42
22018;BME280;11173;51.050;7.108;2023-07-31T05:43:33;98958.63;;;16.87;67.40
22018;BME280;11173;51.050;7.108;2023-07-31T05:53:33;98948.97;;;17.18;66.27
22018;BME280;11173;51.050;7.108;2023-07-31T06:03:34;98934.91;;;17.33;65.49
22018;BME280;11173;51.050;7.108;2023-07-31T06:13:35;98948.97;;;17.33;65.37
22018;BME280;11173;51.050;7.108;2023-07-31T06:23:35;98955.66;;;17.21;64.94
22018;BME280;11173;51.050;7.108;2023-07-31T06:33:36;98946.59;;;17.02;65.28
22018;BME280;11173;51.050;7.108;2023-07-31T06:43:37;98936.41;;;16.89;66.21
22018;BME280;11173;51.050;7.108;2023-07-31T06:53:37;98938.34;;;16.98;67.36
22018;BME280;11173;51.050;7.108;2023-07-31T07:03:37;98935.69;;;17.34;67.41
22018;BME280;11173;51.050;7.108;2023-07-31T07:13:37;98933.16;;;17.65;66.75
22018;BME280;11173;51.050;7.108;2023-07-31T07:23:38;98925.97;;;17.79;65.73
22018;BME280;11173;51.050;7.108;2023-07-31T07:33:38;98925.16;;;17.79;66.00
22018;BME280;11173;51.050;7.108;2023-07-31T07:43:39;98929.47;;;17.74;65.23
22018;BME280;11173;51.050;7.108;2023-07-31T07:53:39;98929.94;;;17.58;65.52
22018;BME280;11173;51.050;7.108;2023-07-31T08:03:39;98927.13;;;17.43;65.89
22018;BME280;11173;51.050;7.108;2023-07-31T08:13:40;98914.91;;;17.31;66.27
22018;BME280;11173;51.050;7.108;2023-07-31T08:23:40;98918.03;;;17.33;66.63
22018;BME280;11173;51.050;7.108;2023-07-31T08:33:40;98904.03;;;17.24;65.85
22018;BME280;11173;51.050;7.108;2023-07-31T08:43:41;98893.38;;;17.13;66.86
22018;BME280;11173;51.050;7.108;2023-07-31T08:53:42;98879.38;;;17.34;67.02
22018;BME280;11173;51.050;7.108;2023-07-31T09:03:43;98882.75;;;17.53;67.12
22018;BME280;11173;51.050;7.108;2023-07-31T09:13:45;98872.44;;;17.79;67.63
22018;BME280;11173;51.050;7.108;2023-07-31T09:23:47;98881.78;;;18.06;66.64
22018;BME280;11173;51.050;7.108;2023-07-31T09:33:54;98888.63;;;18.20;66.62
22018;BME280;11173;51.050;7.108;2023-07-31T09:43:56;98872.28;;;18.24;66.18
22018;BME280;11173;51.050;7.108;2023-07-31T09:53:56;98858.59;;;18.17;65.74
22018;BME280;11173;51.050;7.108;2023-07-31T10:03:57;98854.72;;;18.14;66.14
22018;BME280;11173;51.050;7.108;2023-07-31T10:13:58;98848.03;;;18.32;67.73
22018;BME280;11173;51.050;7.108;2023-07-31T10:23:59;98848.69;;;18.88;67.95
22018;BME280;11173;51.050;7.108;2023-07-31T10:34:00;98839.78;;;19.54;67.71
22018;BME280;11173;51.050;7.108;2023-07-31T10:44:03;98853.97;;;20.02;66.57
22018;BME280;11173;51.050;7.108;2023-07-31T10:54:13;98840.50;;;20.29;65.38
22018;BME280;11173;51.050;7.108;2023-07-31T11:04:22;98833.22;;;20.11;64.68
22018;BME280;11173;51.050;7.108;2023-07-31T11:14:23;98840.56;;;19.97;65.52
22018;BME280;11173;51.050;7.108;2023-07-31T11:24:24;98830.19;;;19.77;64.29
22018;BME280;11173;51.050;7.108;2023-07-31T11:34:24;98834.72;;;19.63;66.33
22018;BME280;11173;51.050;7.108;2023-07-31T11:44:25;98823.69;;;20.03;65.50
22018;BME280;11173;51.050;7.108;2023-07-31T11:54:25;98811.16;;;20.21;64.74
22018;BME280;11173;51.050;7.108;2023-07-31T12:04:26;98800.03;;;20.06;64.57
22018;BME280;11173;51.050;7.108;2023-07-31T12:14:27;98796.50;;;19.74;63.74
22018;BME280;11173;51.050;7.108;2023-07-31T12:24:33;98780.09;;;19.40;64.21
22018;BME280;11173;51.050;7.108;2023-07-31T12:34:42;98785.63;;;19.23;64.48
22018;BME280;11173;51.050;7.108;2023-07-31T12:44:42;98772.38;;;19.03;63.54
22018;BME280;11173;51.050;7.108;2023-07-31T12:54:42;98780.47;;;18.90;63.93
22018;BME280;11173;51.050;7.108;2023-07-31T13:04:43;98771.50;;;18.92;63.96
22018;BME280;11173;51.050;7.108;2023-07-31T13:14:43;98735.47;;;19.13;64.10
22018;BME280;11173;51.050;7.108;2023-07-31T13:24:44;98728.50;;;19.40;64.44
22018;BME280;11173;51.050;7.108;2023-07-31T13:34:44;98732.41;;;19.48;63.02
22018;BME280;11173;51.050;7.108;2023-07-31T13:44:44;98709.28;;;19.44;63.05
22018;BME280;11173;51.050;7.108;2023-07-31T13:54:45;98692.22;;;19.76;65.21
22018;BME280;11173;51.050;7.108;2023-07-31T14:04:45;98698.09;;;20.66;64.03
22018;BME280;11173;51.050;7.108;2023-07-31T14:14:46;98683.94;;;21.11;61.11
22018;BME280;11173;51.050;7.108;2023-07-31T14:24:46;98684.13;;;21.41;61.77
22018;BME280;11173;51.050;7.108;2023-07-31T14:34:46;98683.13;;;21.28;60.39
22018;BME280;11173;51.050;7.108;2023-07-31T14:44:47;98690.63;;;20.74;59.84
22018;BME280;11173;51.050;7.108;2023-07-31T14:54:47;98681.09;;;20.21;60.75
22018;BME280;11173;51.050;7.108;2023-07-31T15:04:47;98661.66;;;19.74;61.63
22018;BME280;11173;51.050;7.108;2023-07-31T15:14:48;98661.84;;;19.59;62.27
22018;BME280;11173;51.050;7.108;2023-07-31T15:24:49;98662.84;;;19.56;62.30
22018;BME280;11173;51.050;7.108;2023-07-31T15:34:49;98657.69;;;19.43;61.42
22018;BME280;11173;51.050;7.108;2023-07-31T15:44:49;98633.72;;;19.27;61.48
22018;BME280;11173;51.050;7.108;2023-07-31T15:54:50;98638.25;;;19.14;61.25
22018;BME280;11173;51.050;7.108;2023-07-31T16:04:50;98615.84;;;19.04;61.66
22018;BME280;11173;51.050;7.108;2023-07-31T16:14:50;98629.44;;;19.00;61.89
22018;BME280;11173;51.050;7.108;2023-07-31T16:24:51;98612.13;;;18.81;61.72
22018;BME280;11173;51.050;7.108;2023-07-31T16:34:51;98593.97;;;18.51;62.46
22018;BME280;11173;51.050;7.108;2023-07-31T16:44:51;98584.25;;;18.25;63.24
22018;BME280;11173;51.050;7.108;2023-07-31T16:54:52;98566.94;;;18.06;63.56
22018;BME280;11173;51.050;7.108;2023-07-31T17:04:52;98549.81;;;17.84;63.96
22018;BME280;11173;51.050;7.108;2023-07-31T17:14:53;98543.31;;;17.72;64.05
22018;BME280;11173;51.050;7.108;2023-07-31T17:24:53;98514.75;;;17.59;64.54
22018;BME280;11173;51.050;7.108;2023-07-31T17:34:53;98495.13;;;17.44;64.75
22018;BME280;11173;51.050;7.108;2023-07-31T17:44:54;98479.34;;;17.26;65.16
22018;BME280;11173;51.050;7.108;2023-07-31T17:54:54;98473.03;;;17.10;65.20
22018;BME280;11173;51.050;7.108;2023-07-31T18:04:55;98462.84;;;16.93;65.74
22018;BME280;11173;51.050;7.108;2023-07-31T18:14:55;98451.97;;;16.80;66.20
22018;BME280;11173;51.050;7.108;2023-07-31T18:24:55;98457.69;;;16.70;66.42
22018;BME280;11173;51.050;7.108;2023-07-31T18:34:56;98447.09;;;16.60;66.78
22018;BME280;11173;51.050;7.108;2023-07-31T18:44:56;98435.97;;;16.50;67.21
22018;BME280;11173;51.050;7.108;2023-07-31T18:54:57;98421.34;;;16.46;66.67
22018;BME280;11173;51.050;7.108;2023-07-31T19:04:57;98404.91;;;16.39;67.36
22018;BME280;11173;51.050;7.108;2023-07-31T19:14:57;98398.47;;;16.33;67.46
22018;BME280;11173;51.050;7.108;2023-07-31T19:24:58;98372.81;;;16.25;68.16
22018;BME280;11173;51.050;7.108;2023-07-31T19:34:58;98358.69;;;16.20;68.27
22018;BME280;11173;51.050;7.108;2023-07-31T19:44:58;98316.75;;;16.16;67.80
22018;BME280;11173;51.050;7.108;2023-07-31T19:54:59;98324.81;;;16.08;67.40
22018;BME280;11173;51.050;7.108;2023-07-31T20:04:59;98334.94;;;16.00;68.52
22018;BME280;11173;51.050;7.108;2023-07-31T20:15:00;98331.56;;;15.96;68.95
22018;BME280;11173;51.050;7.108;2023-07-31T20:25:01;98321.88;;;15.97;68.94
22018;BME280;11173;51.050;7.108;2023-07-31T20:35:01;98327.78;;;15.99;69.05
22018;BME280;11173;51.050;7.108;2023-07-31T20:45:01;98299.19;;;16.01;68.51
22018;BME280;11173;51.050;7.108;2023-07-31T20:55:02;98294.34;;;16.01;69.08
22018;BME280;11173;51.050;7.108;2023-07-31T21:05:03;98269.63;;;16.05;68.82
22018;BME280;11173;51.050;7.108;2023-07-31T21:15:03;98249.97;;;16.05;69.10
22018;BME280;11173;51.050;7.108;2023-07-31T21:25:04;98242.09;;;16.09;69.25
22018;BME280;11173;51.050;7.108;2023-07-31T21:35:05;98212.25;;;16.12;69.04
22018;BME280;11173;51.050;7.108;2023-07-31T21:45:06;98171.94;;;16.15;69.10
22018;BME280;11173;51.050;7.108;2023-07-31T21:55:07;98169.91;;;16.16;68.96
22018;BME280;11173;51.050;7.108;2023-07-31T22:05:07;98144.63;;;16.16;68.95
22018;BME280;11173;51.050;7.108;2023-07-31T22:15:08;98131.06;;;16.14;69.04
22018;BME280;11173;51.050;7.108;2023-07-31T22:25:08;98087.63;;;16.09;68.98
22018;BME280;11173;51.050;7.108;2023-07-31T22:35:09;98075.31;;;16.07;68.95
22018;BME280;11173;51.050;7.108;2023-07-31T22:45:09;98070.16;;;16.00;68.71
22018;BME280;11173;51.050;7.108;2023-07-31T22:55:10;98022.38;;;15.94;68.97
22018;BME280;11173;51.050;7.108;2023-07-31T23:05:10;98004.69;;;15.88;69.64
22018;BME280;11173;51.050;7.108;2023-07-31T23:15:11;97972.50;;;15.83;69.86
22018;BME280;11173;51.050;7.108;2023-07-31T23:25:11;97951.59;;;15.84;69.90
22018;BME280;11173;51.050;7.108;2023-07-31T23:35:11;97952.13;;;15.88;70.06
22018;BME280;11173;51.050;7.108;2023-07-31T23:45:13;97948.59;;;15.94;70.71
22018;BME280;11173;51.050;7.108;2023-07-31T23:55:14;97938.94;;;16.00;70.91
